MAS304 WMKK-VOMM
Flight info
| Callsign | MAS304 |
|---|---|
| Flight time | 3h 11m |
| Altitude | 34000 |
| Route | PUGER1D PUGER P574 DUBTA/N0459F360 P574 GIRNA V6 AVMOR AVMOR2F |
| Aircraft | B738/M-SDE2E3FGHIRWXY/LB1 |
Departure
| Time | 2026-05-04 06:11 |
|---|---|
| Airport | Kuala Lumpur International Airport (WMKK) |
Arrival
| Time | 2026-05-04 09:22 |
|---|---|
| Airport | Chennai International Airport (VOMM) |
| Time | Latitude | Longitude | Altitude | Speed | Heading |
|---|---|---|---|---|---|
| 2026-05-04 05:58 | 2.75116 | 101.70439 | 72 ft | 0 kts | 326° |
| 2026-05-04 06:03 | 2.75032 | 101.70451 | 64 ft | 0 kts | 56° |
| 2026-05-04 06:05 | 2.75056 | 101.70487 | 67 ft | 9 kts | 56° |
| 2026-05-04 06:05 | 2.75062 | 101.70566 | 70 ft | 15 kts | 129° |
| 2026-05-04 06:06 | 2.74969 | 101.70643 | 72 ft | 19 kts | 112° |
| 2026-05-04 06:06 | 2.75029 | 101.70763 | 69 ft | 21 kts | 56° |
| 2026-05-04 06:06 | 2.75117 | 101.70893 | 72 ft | 24 kts | 55° |
| 2026-05-04 06:06 | 2.75215 | 101.71037 | 71 ft | 26 kts | 56° |
| 2026-05-04 06:07 | 2.75323 | 101.71195 | 69 ft | 29 kts | 56° |
| 2026-05-04 06:07 | 2.75437 | 101.71362 | 72 ft | 28 kts | 56° |
| 2026-05-04 06:07 | 2.75520 | 101.71507 | 69 ft | 20 kts | 101° |
| 2026-05-04 06:07 | 2.75414 | 101.71590 | 64 ft | 19 kts | 146° |
| 2026-05-04 06:08 | 2.75303 | 101.71664 | 71 ft | 19 kts | 146° |
| 2026-05-04 06:08 | 2.75196 | 101.71736 | 69 ft | 18 kts | 146° |
| 2026-05-04 06:08 | 2.75092 | 101.71805 | 66 ft | 18 kts | 146° |
| 2026-05-04 06:08 | 2.74996 | 101.71876 | 70 ft | 17 kts | 124° |
| 2026-05-04 06:09 | 2.75037 | 101.71977 | 68 ft | 16 kts | 57° |
| 2026-05-04 06:09 | 2.75113 | 101.72019 | 72 ft | 13 kts | 339° |
| 2026-05-04 06:11 | 2.79776 | 101.68754 | 1949 ft | 197 kts | 306° |
| 2026-05-04 06:11 | 2.80410 | 101.67450 | 2194 ft | 219 kts | 288° |
| 2026-05-04 06:13 | 2.84876 | 101.56396 | 6117 ft | 275 kts | 294° |
| 2026-05-04 06:14 | 2.89612 | 101.45439 | 10119 ft | 297 kts | 294° |
| 2026-05-04 06:14 | 2.90454 | 101.43499 | 10400 ft | 316 kts | 294° |
| 2026-05-04 06:15 | 2.91359 | 101.41415 | 10547 ft | 336 kts | 294° |
| 2026-05-04 06:15 | 2.92316 | 101.39212 | 10696 ft | 356 kts | 294° |
| 2026-05-04 06:15 | 2.93329 | 101.36879 | 10878 ft | 371 kts | 294° |
| 2026-05-04 06:15 | 2.94368 | 101.34484 | 11294 ft | 379 kts | 294° |
| 2026-05-04 06:16 | 2.95421 | 101.32059 | 11825 ft | 382 kts | 294° |
| 2026-05-04 06:16 | 2.96482 | 101.29612 | 12351 ft | 386 kts | 294° |
| 2026-05-04 06:16 | 2.97557 | 101.27137 | 12876 ft | 389 kts | 294° |
| 2026-05-04 06:16 | 2.98638 | 101.24646 | 13398 ft | 392 kts | 294° |
| 2026-05-04 06:17 | 2.99714 | 101.22165 | 13874 ft | 395 kts | 294° |
| 2026-05-04 06:17 | 3.00826 | 101.19602 | 14332 ft | 398 kts | 294° |
| 2026-05-04 06:17 | 3.01921 | 101.17080 | 14770 ft | 401 kts | 294° |
| 2026-05-04 06:17 | 3.03052 | 101.14473 | 15209 ft | 405 kts | 294° |
| 2026-05-04 06:18 | 3.04180 | 101.11874 | 15638 ft | 408 kts | 294° |
| 2026-05-04 06:18 | 3.05300 | 101.09292 | 16049 ft | 411 kts | 294° |
| 2026-05-04 06:18 | 3.06444 | 101.06653 | 16443 ft | 415 kts | 294° |
| 2026-05-04 06:20 | 3.14682 | 100.87659 | 19060 ft | 434 kts | 294° |
| 2026-05-04 06:20 | 3.15886 | 100.84882 | 19397 ft | 436 kts | 294° |
| 2026-05-04 06:21 | 3.20752 | 100.73653 | 20712 ft | 444 kts | 294° |
| 2026-05-04 06:21 | 3.21983 | 100.70813 | 21030 ft | 445 kts | 294° |
| 2026-05-04 06:22 | 3.23220 | 100.67958 | 21319 ft | 448 kts | 294° |
| 2026-05-04 06:22 | 3.24444 | 100.65134 | 21609 ft | 450 kts | 294° |
| 2026-05-04 06:25 | 3.41171 | 100.26861 | 24780 ft | 471 kts | 298° |
| 2026-05-04 06:25 | 3.42725 | 100.23969 | 24981 ft | 473 kts | 299° |
| 2026-05-04 06:26 | 3.44329 | 100.21088 | 25178 ft | 474 kts | 300° |
| 2026-05-04 06:26 | 3.45940 | 100.18225 | 25378 ft | 475 kts | 300° |
| 2026-05-04 06:26 | 3.47563 | 100.15334 | 25577 ft | 476 kts | 300° |
| 2026-05-04 06:26 | 3.49180 | 100.12432 | 25760 ft | 478 kts | 299° |
| 2026-05-04 06:27 | 3.55606 | 100.00752 | 26466 ft | 483 kts | 299° |
| 2026-05-04 06:28 | 3.57225 | 99.97794 | 26643 ft | 484 kts | 299° |
| 2026-05-04 06:28 | 3.58845 | 99.94835 | 26802 ft | 486 kts | 299° |
| 2026-05-04 06:28 | 3.60471 | 99.91863 | 26968 ft | 487 kts | 299° |
| 2026-05-04 06:28 | 3.62104 | 99.88882 | 27123 ft | 488 kts | 299° |
| 2026-05-04 06:29 | 3.63739 | 99.85896 | 27296 ft | 490 kts | 299° |
| 2026-05-04 06:29 | 3.65379 | 99.82902 | 27450 ft | 491 kts | 299° |
| 2026-05-04 06:29 | 3.67021 | 99.79903 | 27610 ft | 492 kts | 299° |
| 2026-05-04 06:29 | 3.68669 | 99.76893 | 27753 ft | 493 kts | 299° |
| 2026-05-04 06:30 | 3.70321 | 99.73877 | 27902 ft | 494 kts | 299° |
| 2026-05-04 06:30 | 3.71977 | 99.70851 | 28052 ft | 496 kts | 298° |
| 2026-05-04 06:30 | 3.73635 | 99.67823 | 28183 ft | 497 kts | 298° |
| 2026-05-04 06:30 | 3.75300 | 99.64781 | 28329 ft | 498 kts | 298° |
| 2026-05-04 06:31 | 3.76964 | 99.61740 | 28458 ft | 499 kts | 298° |
| 2026-05-04 06:31 | 3.78632 | 99.58691 | 28672 ft | 498 kts | 298° |
| 2026-05-04 06:31 | 3.80297 | 99.55648 | 28913 ft | 497 kts | 298° |
| 2026-05-04 06:31 | 3.81957 | 99.52614 | 29152 ft | 496 kts | 298° |
| 2026-05-04 06:32 | 3.83611 | 99.49590 | 29359 ft | 496 kts | 298° |
| 2026-05-04 06:33 | 3.95132 | 99.28523 | 30820 ft | 490 kts | 298° |
| 2026-05-04 06:34 | 3.96768 | 99.25528 | 31017 ft | 489 kts | 298° |
| 2026-05-04 06:34 | 3.98400 | 99.22543 | 31197 ft | 489 kts | 298° |
| 2026-05-04 06:34 | 4.00030 | 99.19560 | 31396 ft | 488 kts | 298° |
| 2026-05-04 06:34 | 4.01656 | 99.16585 | 31618 ft | 487 kts | 298° |
| 2026-05-04 06:35 | 4.03281 | 99.13610 | 31833 ft | 486 kts | 298° |
| 2026-05-04 06:36 | 4.14536 | 98.93003 | 33484 ft | 476 kts | 298° |
| 2026-05-04 06:37 | 4.16114 | 98.90111 | 33708 ft | 475 kts | 298° |
| 2026-05-04 06:37 | 4.17698 | 98.87210 | 33910 ft | 473 kts | 298° |
| 2026-05-04 06:37 | 4.20846 | 98.81442 | 33902 ft | 474 kts | 298° |
| 2026-05-04 06:38 | 4.24002 | 98.75658 | 33897 ft | 472 kts | 298° |
| 2026-05-04 06:40 | 4.36628 | 98.52505 | 33910 ft | 477 kts | 299° |
| 2026-05-04 06:40 | 4.39821 | 98.46647 | 33907 ft | 480 kts | 299° |
| 2026-05-04 06:41 | 4.43010 | 98.40793 | 33907 ft | 482 kts | 299° |
| 2026-05-04 06:41 | 4.46234 | 98.34877 | 33906 ft | 484 kts | 299° |
| 2026-05-04 06:42 | 4.49465 | 98.28944 | 33902 ft | 486 kts | 299° |
| 2026-05-04 06:44 | 4.62391 | 98.05197 | 33899 ft | 483 kts | 299° |
| 2026-05-04 06:44 | 4.65603 | 97.99293 | 33900 ft | 482 kts | 299° |
| 2026-05-04 06:45 | 4.68789 | 97.93435 | 33897 ft | 481 kts | 299° |
| 2026-05-04 06:45 | 4.71989 | 97.87549 | 33895 ft | 480 kts | 299° |
| 2026-05-04 06:46 | 4.75183 | 97.81674 | 33897 ft | 480 kts | 299° |
| 2026-05-04 06:46 | 4.78375 | 97.75801 | 33901 ft | 479 kts | 299° |
| 2026-05-04 06:48 | 4.91129 | 97.52318 | 33904 ft | 479 kts | 299° |
| 2026-05-04 06:50 | 5.03900 | 97.28779 | 33900 ft | 481 kts | 299° |
| 2026-05-04 06:51 | 5.07097 | 97.22882 | 33898 ft | 481 kts | 299° |
| 2026-05-04 06:51 | 5.10295 | 97.16984 | 33899 ft | 482 kts | 299° |
| 2026-05-04 06:52 | 5.13473 | 97.11118 | 33903 ft | 482 kts | 299° |
| 2026-05-04 06:52 | 5.16678 | 97.05203 | 33901 ft | 483 kts | 299° |
| 2026-05-04 06:53 | 5.19886 | 96.99280 | 33898 ft | 483 kts | 299° |
| 2026-05-04 06:53 | 5.23099 | 96.93346 | 33903 ft | 484 kts | 299° |
| 2026-05-04 06:54 | 5.26314 | 96.87407 | 33903 ft | 485 kts | 299° |
| 2026-05-04 06:54 | 5.29532 | 96.81460 | 33890 ft | 486 kts | 299° |
| 2026-05-04 06:55 | 5.32762 | 96.75491 | 33896 ft | 487 kts | 298° |
| 2026-05-04 06:55 | 5.35997 | 96.69509 | 33894 ft | 488 kts | 298° |
| 2026-05-04 06:57 | 5.49007 | 96.45439 | 33907 ft | 493 kts | 298° |
| 2026-05-04 06:58 | 5.52274 | 96.39390 | 33914 ft | 493 kts | 298° |
| 2026-05-04 06:58 | 5.55547 | 96.33326 | 33897 ft | 494 kts | 298° |
| 2026-05-04 06:59 | 5.58826 | 96.27251 | 33875 ft | 494 kts | 298° |
| 2026-05-04 06:59 | 5.62080 | 96.21220 | 33873 ft | 489 kts | 298° |
| 2026-05-04 07:01 | 5.72698 | 96.01529 | 33883 ft | 476 kts | 298° |
| 2026-05-04 07:01 | 5.74272 | 95.98610 | 33878 ft | 475 kts | 298° |
| 2026-05-04 07:02 | 5.77396 | 95.92811 | 33882 ft | 475 kts | 298° |
| 2026-05-04 07:02 | 5.80561 | 95.86935 | 33880 ft | 475 kts | 298° |
| 2026-05-04 07:03 | 5.83689 | 95.81126 | 33879 ft | 476 kts | 298° |
| 2026-05-04 07:03 | 5.86843 | 95.75266 | 33880 ft | 478 kts | 299° |
| 2026-05-04 07:04 | 5.90010 | 95.69381 | 33877 ft | 479 kts | 299° |
| 2026-05-04 07:04 | 5.93188 | 95.63474 | 33874 ft | 481 kts | 299° |
| 2026-05-04 07:05 | 5.96370 | 95.57557 | 33880 ft | 482 kts | 299° |
| 2026-05-04 07:05 | 5.99555 | 95.51632 | 33887 ft | 482 kts | 299° |
| 2026-05-04 07:06 | 6.04422 | 95.42773 | 33883 ft | 483 kts | 300° |
| 2026-05-04 07:07 | 6.07701 | 95.36876 | 33884 ft | 483 kts | 300° |
| 2026-05-04 07:09 | 6.20684 | 95.13384 | 33883 ft | 480 kts | 300° |
| 2026-05-04 07:09 | 6.23924 | 95.07517 | 33886 ft | 479 kts | 300° |
| 2026-05-04 07:10 | 6.27169 | 95.01667 | 33885 ft | 479 kts | 300° |
| 2026-05-04 07:12 | 6.40117 | 94.78337 | 33884 ft | 478 kts | 300° |
| 2026-05-04 07:12 | 6.43350 | 94.72502 | 33881 ft | 478 kts | 300° |
| 2026-05-04 07:13 | 6.46591 | 94.66653 | 33885 ft | 478 kts | 300° |
| 2026-05-04 07:13 | 6.49830 | 94.60804 | 33888 ft | 478 kts | 300° |
| 2026-05-04 07:14 | 6.57934 | 94.46162 | 33882 ft | 479 kts | 300° |
| 2026-05-04 07:15 | 6.61096 | 94.40307 | 33883 ft | 480 kts | 296° |
| 2026-05-04 07:15 | 6.63886 | 94.34209 | 33892 ft | 480 kts | 294° |
| 2026-05-04 07:16 | 6.66579 | 94.28053 | 33885 ft | 480 kts | 294° |
| 2026-05-04 07:16 | 6.69290 | 94.21911 | 33883 ft | 481 kts | 295° |
| 2026-05-04 07:17 | 6.72034 | 94.15765 | 33884 ft | 481 kts | 295° |
| 2026-05-04 07:17 | 6.74779 | 94.09642 | 33882 ft | 481 kts | 295° |
| 2026-05-04 07:18 | 6.77528 | 94.03512 | 33883 ft | 480 kts | 295° |
| 2026-05-04 07:18 | 6.80272 | 93.97387 | 33887 ft | 480 kts | 295° |
| 2026-05-04 07:19 | 6.83017 | 93.91253 | 33884 ft | 480 kts | 295° |
| 2026-05-04 07:19 | 6.85751 | 93.85142 | 33885 ft | 480 kts | 295° |
| 2026-05-04 07:20 | 6.88493 | 93.79013 | 33884 ft | 479 kts | 295° |
| 2026-05-04 07:20 | 6.91211 | 93.72932 | 33885 ft | 479 kts | 295° |
| 2026-05-04 07:22 | 7.02137 | 93.48469 | 33885 ft | 479 kts | 294° |
| 2026-05-04 07:23 | 7.04864 | 93.42358 | 33883 ft | 479 kts | 294° |
| 2026-05-04 07:23 | 7.07591 | 93.36242 | 33890 ft | 479 kts | 294° |
| 2026-05-04 07:24 | 7.10325 | 93.30110 | 33891 ft | 480 kts | 294° |
| 2026-05-04 07:24 | 7.13058 | 93.23977 | 33879 ft | 480 kts | 294° |
| 2026-05-04 07:26 | 7.23954 | 92.99499 | 34868 ft | 476 kts | 294° |
| 2026-05-04 07:27 | 7.25309 | 92.96452 | 35010 ft | 476 kts | 294° |
| 2026-05-04 07:27 | 7.26666 | 92.93402 | 35190 ft | 476 kts | 294° |
| 2026-05-04 07:27 | 7.28015 | 92.90367 | 35404 ft | 475 kts | 294° |
| 2026-05-04 07:27 | 7.29359 | 92.87342 | 35619 ft | 473 kts | 294° |
| 2026-05-04 07:28 | 7.30702 | 92.84320 | 35789 ft | 472 kts | 294° |
| 2026-05-04 07:28 | 7.32046 | 92.81295 | 35872 ft | 473 kts | 294° |
| 2026-05-04 07:28 | 7.34740 | 92.75229 | 35881 ft | 475 kts | 294° |
| 2026-05-04 07:29 | 7.37431 | 92.69167 | 35885 ft | 473 kts | 294° |
| 2026-05-04 07:29 | 7.40116 | 92.63118 | 35882 ft | 472 kts | 294° |
| 2026-05-04 07:30 | 7.42792 | 92.57085 | 35881 ft | 471 kts | 294° |
| 2026-05-04 07:30 | 7.45461 | 92.51063 | 35880 ft | 470 kts | 294° |
| 2026-05-04 07:31 | 7.48107 | 92.45093 | 35879 ft | 469 kts | 294° |
| 2026-05-04 07:33 | 7.58719 | 92.21124 | 35883 ft | 468 kts | 294° |
| 2026-05-04 07:33 | 7.61375 | 92.15118 | 35882 ft | 469 kts | 294° |
| 2026-05-04 07:34 | 7.64023 | 92.09127 | 35881 ft | 469 kts | 294° |
| 2026-05-04 07:34 | 7.66684 | 92.03105 | 35879 ft | 469 kts | 294° |
| 2026-05-04 07:35 | 7.69341 | 91.97088 | 35873 ft | 470 kts | 294° |
| 2026-05-04 07:35 | 7.71995 | 91.91075 | 35879 ft | 470 kts | 294° |
| 2026-05-04 07:36 | 7.74651 | 91.85055 | 35877 ft | 470 kts | 294° |
| 2026-05-04 07:38 | 7.85289 | 91.61098 | 35870 ft | 467 kts | 295° |
| 2026-05-04 07:38 | 7.88043 | 91.55116 | 35869 ft | 467 kts | 295° |
| 2026-05-04 07:39 | 7.90753 | 91.49216 | 35874 ft | 466 kts | 295° |
| 2026-05-04 07:39 | 7.93469 | 91.43278 | 35872 ft | 466 kts | 295° |
| 2026-05-04 07:40 | 7.96181 | 91.37338 | 35869 ft | 465 kts | 295° |
| 2026-05-04 07:40 | 7.98886 | 91.31410 | 35869 ft | 465 kts | 295° |
| 2026-05-04 07:41 | 8.01591 | 91.25479 | 35870 ft | 465 kts | 295° |
| 2026-05-04 07:41 | 8.04294 | 91.19551 | 35868 ft | 465 kts | 295° |
| 2026-05-04 07:42 | 8.07001 | 91.13613 | 35871 ft | 465 kts | 295° |
| 2026-05-04 07:42 | 8.09702 | 91.07683 | 35867 ft | 465 kts | 295° |
| 2026-05-04 07:43 | 8.12405 | 91.01747 | 35867 ft | 465 kts | 295° |
| 2026-05-04 07:43 | 8.15091 | 90.95847 | 35875 ft | 465 kts | 295° |
| 2026-05-04 07:44 | 8.17789 | 90.89917 | 35868 ft | 465 kts | 295° |
| 2026-05-04 07:44 | 8.20489 | 90.83978 | 35871 ft | 465 kts | 295° |
| 2026-05-04 07:45 | 8.23190 | 90.78035 | 35868 ft | 465 kts | 295° |
| 2026-05-04 07:45 | 8.25885 | 90.72103 | 35865 ft | 465 kts | 295° |
| 2026-05-04 07:46 | 8.28580 | 90.66171 | 35872 ft | 465 kts | 295° |
| 2026-05-04 07:46 | 8.31274 | 90.60236 | 35868 ft | 464 kts | 295° |
| 2026-05-04 07:47 | 8.33510 | 90.55306 | 35865 ft | 464 kts | 295° |
| 2026-05-04 07:49 | 8.44232 | 90.31649 | 35869 ft | 463 kts | 295° |
| 2026-05-04 07:49 | 8.46910 | 90.25733 | 35869 ft | 462 kts | 294° |
| 2026-05-04 07:50 | 8.49581 | 90.19829 | 35862 ft | 462 kts | 294° |
| 2026-05-04 07:50 | 8.52233 | 90.13965 | 35861 ft | 462 kts | 294° |
| 2026-05-04 07:51 | 8.54902 | 90.08061 | 35859 ft | 462 kts | 294° |
| 2026-05-04 07:51 | 8.57569 | 90.02158 | 35868 ft | 461 kts | 294° |
| 2026-05-04 07:52 | 8.60232 | 89.96261 | 35858 ft | 461 kts | 294° |
| 2026-05-04 07:52 | 8.62897 | 89.90357 | 35864 ft | 461 kts | 294° |
| 2026-05-04 07:54 | 8.73531 | 89.66771 | 35863 ft | 461 kts | 294° |
| 2026-05-04 07:55 | 8.76186 | 89.60875 | 35861 ft | 461 kts | 294° |
| 2026-05-04 07:55 | 8.78843 | 89.54970 | 35866 ft | 461 kts | 294° |
| 2026-05-04 07:56 | 8.81495 | 89.49077 | 35862 ft | 461 kts | 294° |
| 2026-05-04 07:56 | 8.84132 | 89.43213 | 35863 ft | 461 kts | 294° |
| 2026-05-04 07:57 | 8.86785 | 89.37308 | 35858 ft | 461 kts | 294° |
| 2026-05-04 07:57 | 8.89440 | 89.31398 | 35859 ft | 461 kts | 294° |
| 2026-05-04 07:58 | 8.92088 | 89.25501 | 35858 ft | 461 kts | 294° |
| 2026-05-04 07:58 | 8.94738 | 89.19594 | 35858 ft | 461 kts | 294° |
| 2026-05-04 07:59 | 8.97385 | 89.13694 | 35856 ft | 461 kts | 294° |
| 2026-05-04 07:59 | 9.00031 | 89.07792 | 35854 ft | 461 kts | 294° |
| 2026-05-04 08:00 | 9.02676 | 89.01889 | 35854 ft | 461 kts | 294° |
| 2026-05-04 08:02 | 9.13236 | 88.78291 | 35861 ft | 461 kts | 293° |
| 2026-05-04 08:02 | 9.15879 | 88.72377 | 35860 ft | 461 kts | 293° |
| 2026-05-04 08:03 | 9.18515 | 88.66477 | 35853 ft | 460 kts | 293° |
| 2026-05-04 08:03 | 9.21153 | 88.60570 | 35856 ft | 460 kts | 293° |
| 2026-05-04 08:04 | 9.23786 | 88.54669 | 35855 ft | 460 kts | 293° |
| 2026-05-04 08:04 | 9.26421 | 88.48762 | 35849 ft | 460 kts | 293° |
| 2026-05-04 08:05 | 9.29037 | 88.42892 | 35856 ft | 460 kts | 293° |
| 2026-05-04 08:05 | 9.31673 | 88.36978 | 35857 ft | 461 kts | 293° |
| 2026-05-04 08:06 | 9.34314 | 88.31047 | 35854 ft | 462 kts | 293° |
| 2026-05-04 08:06 | 9.36958 | 88.25107 | 35854 ft | 463 kts | 293° |
| 2026-05-04 08:08 | 9.47583 | 88.01202 | 35853 ft | 467 kts | 293° |
| 2026-05-04 08:11 | 9.59538 | 87.74248 | 35856 ft | 465 kts | 293° |
| 2026-05-04 08:11 | 9.63510 | 87.65276 | 35854 ft | 464 kts | 293° |
| 2026-05-04 08:12 | 9.66135 | 87.59343 | 35856 ft | 464 kts | 293° |
| 2026-05-04 08:12 | 9.68769 | 87.53386 | 35855 ft | 463 kts | 293° |
| 2026-05-04 08:13 | 9.71405 | 87.47421 | 35858 ft | 463 kts | 293° |
| 2026-05-04 08:13 | 9.74039 | 87.41457 | 35853 ft | 463 kts | 293° |
| 2026-05-04 08:14 | 9.76671 | 87.35497 | 35858 ft | 464 kts | 293° |
| 2026-05-04 08:16 | 9.87578 | 87.11704 | 35852 ft | 467 kts | 294° |
| 2026-05-04 08:16 | 9.90313 | 87.05732 | 35854 ft | 468 kts | 293° |
| 2026-05-04 08:17 | 9.93057 | 86.99734 | 35861 ft | 468 kts | 293° |
| 2026-05-04 08:17 | 9.95803 | 86.93728 | 35857 ft | 469 kts | 293° |
| 2026-05-04 08:19 | 10.06757 | 86.69745 | 35847 ft | 469 kts | 293° |
| 2026-05-04 08:20 | 10.09496 | 86.63739 | 35851 ft | 468 kts | 293° |
| 2026-05-04 08:20 | 10.12228 | 86.57745 | 35853 ft | 468 kts | 293° |
| 2026-05-04 08:21 | 10.14959 | 86.51749 | 35855 ft | 467 kts | 293° |
| 2026-05-04 08:21 | 10.17686 | 86.45761 | 35847 ft | 467 kts | 293° |
| 2026-05-04 08:22 | 10.20406 | 86.39783 | 35847 ft | 466 kts | 293° |
| 2026-05-04 08:24 | 10.31285 | 86.15841 | 35848 ft | 467 kts | 293° |
| 2026-05-04 08:24 | 10.34006 | 86.09843 | 35841 ft | 468 kts | 293° |
| 2026-05-04 08:25 | 10.36711 | 86.03879 | 35845 ft | 469 kts | 293° |
| 2026-05-04 08:25 | 10.39440 | 85.97857 | 35844 ft | 469 kts | 293° |
| 2026-05-04 08:27 | 10.50378 | 85.73688 | 35841 ft | 471 kts | 293° |
| 2026-05-04 08:28 | 10.53115 | 85.67630 | 35837 ft | 472 kts | 293° |
| 2026-05-04 08:28 | 10.55853 | 85.61566 | 35834 ft | 472 kts | 293° |
| 2026-05-04 08:29 | 10.58574 | 85.55539 | 35840 ft | 472 kts | 293° |
| 2026-05-04 08:31 | 10.69492 | 85.31311 | 35835 ft | 470 kts | 293° |
| 2026-05-04 08:33 | 10.80347 | 85.07164 | 35828 ft | 468 kts | 293° |
| 2026-05-04 08:35 | 10.90681 | 84.84121 | 35832 ft | 468 kts | 293° |
| 2026-05-04 08:35 | 10.93378 | 84.78098 | 35836 ft | 467 kts | 293° |
| 2026-05-04 08:37 | 11.02797 | 84.57036 | 35825 ft | 466 kts | 293° |
| 2026-05-04 08:38 | 11.05477 | 84.51035 | 35825 ft | 465 kts | 293° |
| 2026-05-04 08:38 | 11.08150 | 84.45046 | 35824 ft | 464 kts | 293° |
| 2026-05-04 08:40 | 11.18764 | 84.21225 | 35820 ft | 461 kts | 292° |
| 2026-05-04 08:41 | 11.21409 | 84.15281 | 35819 ft | 460 kts | 292° |
| 2026-05-04 08:41 | 11.24047 | 84.09347 | 35826 ft | 460 kts | 292° |
| 2026-05-04 08:42 | 11.26687 | 84.03406 | 35819 ft | 460 kts | 292° |
| 2026-05-04 08:42 | 11.29310 | 83.97499 | 35821 ft | 460 kts | 292° |
| 2026-05-04 08:43 | 11.31950 | 83.91548 | 35823 ft | 461 kts | 292° |
| 2026-05-04 08:43 | 11.34591 | 83.85593 | 35821 ft | 462 kts | 292° |
| 2026-05-04 08:44 | 11.37236 | 83.79625 | 35821 ft | 462 kts | 292° |
| 2026-05-04 08:46 | 11.47830 | 83.55684 | 35815 ft | 464 kts | 292° |
| 2026-05-04 08:46 | 11.50482 | 83.49680 | 35813 ft | 464 kts | 292° |
| 2026-05-04 08:47 | 11.53134 | 83.43672 | 35815 ft | 464 kts | 292° |
| 2026-05-04 08:47 | 11.55763 | 83.37712 | 35820 ft | 464 kts | 292° |
| 2026-05-04 08:48 | 11.58410 | 83.31709 | 35820 ft | 464 kts | 291° |
| 2026-05-04 08:48 | 11.61223 | 83.25781 | 35816 ft | 464 kts | 294° |
| 2026-05-04 08:49 | 11.64189 | 83.19927 | 35814 ft | 464 kts | 295° |
| 2026-05-04 08:50 | 11.74447 | 82.99373 | 35814 ft | 465 kts | 294° |
| 2026-05-04 08:51 | 11.77361 | 82.93484 | 35814 ft | 465 kts | 294° |
| 2026-05-04 08:51 | 11.80279 | 82.87584 | 35809 ft | 466 kts | 294° |
| 2026-05-04 08:52 | 11.83187 | 82.81704 | 35812 ft | 467 kts | 294° |
| 2026-05-04 08:52 | 11.86119 | 82.75772 | 35806 ft | 468 kts | 294° |
| 2026-05-04 08:54 | 11.97852 | 82.51994 | 35804 ft | 470 kts | 294° |
| 2026-05-04 08:55 | 12.00790 | 82.46030 | 35807 ft | 470 kts | 294° |
| 2026-05-04 08:55 | 12.03723 | 82.40072 | 35806 ft | 469 kts | 294° |
| 2026-05-04 09:01 | 12.34461 | 81.77404 | 27395 ft | 455 kts | 295° |
| 2026-05-04 09:01 | 12.35851 | 81.74559 | 26863 ft | 451 kts | 295° |
| 2026-05-04 09:01 | 12.37248 | 81.71700 | 26331 ft | 447 kts | 295° |
| 2026-05-04 09:01 | 12.38630 | 81.68869 | 25805 ft | 443 kts | 294° |
| 2026-05-04 09:02 | 12.40002 | 81.66058 | 25269 ft | 440 kts | 294° |
| 2026-05-04 09:02 | 12.41366 | 81.63263 | 24723 ft | 438 kts | 294° |
| 2026-05-04 09:02 | 12.42721 | 81.60485 | 24186 ft | 435 kts | 294° |
| 2026-05-04 09:02 | 12.44069 | 81.57721 | 23656 ft | 433 kts | 294° |
| 2026-05-04 09:03 | 12.45410 | 81.54970 | 23073 ft | 431 kts | 294° |
| 2026-05-04 09:03 | 12.46746 | 81.52230 | 22497 ft | 428 kts | 294° |
| 2026-05-04 09:03 | 12.48070 | 81.49513 | 21964 ft | 424 kts | 294° |
| 2026-05-04 09:03 | 12.49381 | 81.46821 | 21429 ft | 421 kts | 294° |
| 2026-05-04 09:04 | 12.50683 | 81.44149 | 20919 ft | 417 kts | 294° |
| 2026-05-04 09:04 | 12.51971 | 81.41504 | 20402 ft | 414 kts | 294° |
| 2026-05-04 09:04 | 12.53248 | 81.38880 | 19897 ft | 411 kts | 294° |
| 2026-05-04 09:04 | 12.54521 | 81.36263 | 19381 ft | 409 kts | 294° |
| 2026-05-04 09:05 | 12.55781 | 81.33671 | 18870 ft | 406 kts | 294° |
| 2026-05-04 09:05 | 12.57040 | 81.31082 | 18364 ft | 404 kts | 294° |
| 2026-05-04 09:05 | 12.58291 | 81.28507 | 17818 ft | 403 kts | 295° |
| 2026-05-04 09:05 | 12.59536 | 81.25948 | 17278 ft | 400 kts | 295° |
| 2026-05-04 09:06 | 12.60766 | 81.23415 | 16767 ft | 396 kts | 295° |
| 2026-05-04 09:07 | 12.69115 | 81.06206 | 13327 ft | 379 kts | 296° |
| 2026-05-04 09:08 | 12.70284 | 81.03795 | 12816 ft | 376 kts | 296° |
| 2026-05-04 09:08 | 12.71443 | 81.01404 | 12328 ft | 373 kts | 296° |
| 2026-05-04 09:08 | 12.72592 | 80.99031 | 11853 ft | 370 kts | 296° |
| 2026-05-04 09:08 | 12.73729 | 80.96684 | 11380 ft | 367 kts | 296° |
| 2026-05-04 09:09 | 12.74864 | 80.94340 | 10967 ft | 364 kts | 296° |
| 2026-05-04 09:09 | 12.75969 | 80.92055 | 10805 ft | 352 kts | 296° |
| 2026-05-04 09:09 | 12.77043 | 80.89836 | 10643 ft | 342 kts | 296° |
| 2026-05-04 09:09 | 12.78083 | 80.87686 | 10492 ft | 332 kts | 296° |
| 2026-05-04 09:10 | 12.79094 | 80.85595 | 10356 ft | 322 kts | 296° |
| 2026-05-04 09:10 | 12.80076 | 80.83566 | 10216 ft | 313 kts | 296° |
| 2026-05-04 09:10 | 12.81033 | 80.81584 | 9997 ft | 308 kts | 296° |
| 2026-05-04 09:10 | 12.81966 | 80.79641 | 9873 ft | 300 kts | 296° |
| 2026-05-04 09:11 | 12.82875 | 80.77745 | 9635 ft | 296 kts | 296° |
| 2026-05-04 09:11 | 12.83782 | 80.75854 | 9323 ft | 295 kts | 296° |
| 2026-05-04 09:11 | 12.84683 | 80.73973 | 9016 ft | 293 kts | 296° |
| 2026-05-04 09:11 | 12.85580 | 80.72101 | 8764 ft | 290 kts | 296° |
| 2026-05-04 09:12 | 12.86454 | 80.70277 | 8601 ft | 283 kts | 296° |
| 2026-05-04 09:12 | 12.87321 | 80.68468 | 8340 ft | 281 kts | 296° |
| 2026-05-04 09:14 | 12.93219 | 80.56145 | 6403 ft | 272 kts | 295° |
| 2026-05-04 09:14 | 12.94051 | 80.54404 | 6120 ft | 272 kts | 295° |
| 2026-05-04 09:14 | 12.94882 | 80.52666 | 5834 ft | 269 kts | 295° |
| 2026-05-04 09:14 | 12.95691 | 80.50975 | 5729 ft | 260 kts | 295° |
| 2026-05-04 09:15 | 12.96478 | 80.49329 | 5612 ft | 252 kts | 295° |
| 2026-05-04 09:15 | 12.97239 | 80.47737 | 5548 ft | 247 kts | 295° |
| 2026-05-04 09:15 | 12.97994 | 80.46154 | 5365 ft | 248 kts | 295° |
| 2026-05-04 09:15 | 12.98813 | 80.44596 | 5068 ft | 249 kts | 306° |
| 2026-05-04 09:17 | 13.05580 | 80.35100 | 3104 ft | 191 kts | 257° |
| 2026-05-04 09:18 | 13.05256 | 80.33806 | 3000 ft | 183 kts | 254° |
| 2026-05-04 09:18 | 13.04856 | 80.32567 | 2798 ft | 188 kts | 251° |
| 2026-05-04 09:18 | 13.04399 | 80.31304 | 2569 ft | 192 kts | 250° |
| 2026-05-04 09:18 | 13.03919 | 80.30015 | 2316 ft | 192 kts | 249° |
| 2026-05-04 09:19 | 13.03452 | 80.28766 | 2052 ft | 183 kts | 248° |
| 2026-05-04 09:19 | 13.03010 | 80.27583 | 1849 ft | 172 kts | 248° |
| 2026-05-04 09:19 | 13.02589 | 80.26454 | 1663 ft | 165 kts | 246° |
| 2026-05-04 09:19 | 13.02181 | 80.25364 | 1404 ft | 160 kts | 246° |
| 2026-05-04 09:20 | 13.01784 | 80.24302 | 1207 ft | 159 kts | 246° |
| 2026-05-04 09:20 | 13.01388 | 80.23244 | 1013 ft | 161 kts | 245° |
| 2026-05-04 09:20 | 13.00988 | 80.22172 | 812 ft | 165 kts | 245° |
| 2026-05-04 09:20 | 13.00586 | 80.21094 | 589 ft | 162 kts | 245° |
| 2026-05-04 09:21 | 13.00205 | 80.20029 | 321 ft | 153 kts | 245° |
| 2026-05-04 09:21 | 12.99834 | 80.19049 | 187 ft | 145 kts | 244° |
| 2026-05-04 09:21 | 12.99467 | 80.18086 | 58 ft | 143 kts | 245° |
| 2026-05-04 09:21 | 12.99146 | 80.17245 | 47 ft | 107 kts | 249° |
| 2026-05-04 09:22 | 12.98932 | 80.16675 | 49 ft | 64 kts | 249° |
| 2026-05-04 09:22 | 12.98840 | 80.16458 | 55 ft | 37 kts | 234° |
| 2026-05-04 09:22 | 12.98725 | 80.16343 | 54 ft | 22 kts | 218° |
| 2026-05-04 09:22 | 12.98618 | 80.16259 | 52 ft | 18 kts | 217° |
| 2026-05-04 09:23 | 12.98525 | 80.16138 | 54 ft | 14 kts | 218° |
| 2026-05-04 09:23 | 12.98464 | 80.16145 | 52 ft | 14 kts | 159° |
| 2026-05-04 09:23 | 12.98376 | 80.16156 | 54 ft | 13 kts | 219° |
| 2026-05-04 09:23 | 12.98338 | 80.16073 | 53 ft | 13 kts | 250° |
| 2026-05-04 09:25 | 12.98222 | 80.15990 | 54 ft | 0 kts | 160° |